sensor_id;sensor_type;location;lat;lon;timestamp;temperature;humidity
42833;DHT22;64089;51.478;5.692;2023-05-29T00:01:32;13.00;99.90
42833;DHT22;64089;51.478;5.692;2023-05-29T00:03:58;13.00;99.90
42833;DHT22;64089;51.478;5.692;2023-05-29T00:06:24;12.90;99.90
42833;DHT22;64089;51.478;5.692;2023-05-29T00:08:50;12.90;99.90
42833;DHT22;64089;51.478;5.692;2023-05-29T00:11:18;12.90;99.90
42833;DHT22;64089;51.478;5.692;2023-05-29T00:13:43;12.90;99.90
42833;DHT22;64089;51.478;5.692;2023-05-29T00:16:09;12.80;99.90
42833;DHT22;64089;51.478;5.692;2023-05-29T00:18:35;12.80;99.90
42833;DHT22;64089;51.478;5.692;2023-05-29T00:21:01;12.80;99.90
42833;DHT22;64089;51.478;5.692;2023-05-29T00:23:27;12.80;99.90
42833;DHT22;64089;51.478;5.692;2023-05-29T00:25:53;12.80;99.90
42833;DHT22;64089;51.478;5.692;2023-05-29T00:28:18;12.70;99.90
42833;DHT22;64089;51.478;5.692;2023-05-29T00:30:44;12.60;99.90
42833;DHT22;64089;51.478;5.692;2023-05-29T00:33:09;12.50;99.90
42833;DHT22;64089;51.478;5.692;2023-05-29T00:35:35;12.50;99.90
42833;DHT22;64089;51.478;5.692;2023-05-29T00:38:01;12.50;99.90
42833;DHT22;64089;51.478;5.692;2023-05-29T00:40:26;12.50;99.90
42833;DHT22;64089;51.478;5.692;2023-05-29T00:42:52;12.30;99.90
42833;DHT22;64089;51.478;5.692;2023-05-29T00:45:18;12.30;99.90
42833;DHT22;64089;51.478;5.692;2023-05-29T00:47:43;12.30;99.90
42833;DHT22;64089;51.478;5.692;2023-05-29T00:50:11;12.30;99.90
42833;DHT22;64089;51.478;5.692;2023-05-29T00:52:40;12.20;99.90
42833;DHT22;64089;51.478;5.692;2023-05-29T00:55:07;12.20;99.90
42833;DHT22;64089;51.478;5.692;2023-05-29T00:57:35;12.10;99.90
42833;DHT22;64089;51.478;5.692;2023-05-29T01:00:05;12.00;99.90
42833;DHT22;64089;51.478;5.692;2023-05-29T01:02:35;12.00;99.90
42833;DHT22;64089;51.478;5.692;2023-05-29T01:05:01;12.00;99.90
42833;DHT22;64089;51.478;5.692;2023-05-29T01:07:27;11.90;99.90
42833;DHT22;64089;51.478;5.692;2023-05-29T01:09:52;11.90;99.90
42833;DHT22;64089;51.478;5.692;2023-05-29T01:12:43;11.80;99.90
42833;DHT22;64089;51.478;5.692;2023-05-29T01:17:56;11.80;99.90
42833;DHT22;64089;51.478;5.692;2023-05-29T01:20:40;11.70;99.90
42833;DHT22;64089;51.478;5.692;2023-05-29T01:28:33;11.60;99.90
42833;DHT22;64089;51.478;5.692;2023-05-29T01:31:01;11.60;99.90
42833;DHT22;64089;51.478;5.692;2023-05-29T01:33:28;11.50;99.90
42833;DHT22;64089;51.478;5.692;2023-05-29T01:35:53;11.50;99.90
42833;DHT22;64089;51.478;5.692;2023-05-29T01:38:19;11.50;99.90
42833;DHT22;64089;51.478;5.692;2023-05-29T01:40:45;11.40;99.90
42833;DHT22;64089;51.478;5.692;2023-05-29T01:43:12;11.40;99.90
42833;DHT22;64089;51.478;5.692;2023-05-29T01:45:38;11.40;99.90
42833;DHT22;64089;51.478;5.692;2023-05-29T01:48:06;11.40;99.90
42833;DHT22;64089;51.478;5.692;2023-05-29T01:50:31;11.30;99.90
42833;DHT22;64089;51.478;5.692;2023-05-29T01:52:57;11.20;99.90
42833;DHT22;64089;51.478;5.692;2023-05-29T01:55:23;11.30;99.90
42833;DHT22;64089;51.478;5.692;2023-05-29T01:57:49;11.20;99.90
42833;DHT22;64089;51.478;5.692;2023-05-29T02:00:18;11.20;99.90
42833;DHT22;64089;51.478;5.692;2023-05-29T02:02:44;11.20;99.90
42833;DHT22;64089;51.478;5.692;2023-05-29T02:05:10;11.10;99.90
42833;DHT22;64089;51.478;5.692;2023-05-29T02:07:36;11.10;99.90
42833;DHT22;64089;51.478;5.692;2023-05-29T02:10:06;11.00;99.90
42833;DHT22;64089;51.478;5.692;2023-05-29T02:12:32;11.00;99.90
42833;DHT22;64089;51.478;5.692;2023-05-29T02:14:58;10.90;99.90
42833;DHT22;64089;51.478;5.692;2023-05-29T02:17:23;10.80;99.90
42833;DHT22;64089;51.478;5.692;2023-05-29T02:19:49;10.80;99.90
42833;DHT22;64089;51.478;5.692;2023-05-29T02:22:17;10.80;99.90
42833;DHT22;64089;51.478;5.692;2023-05-29T02:24:43;10.90;99.90
42833;DHT22;64089;51.478;5.692;2023-05-29T02:27:09;10.90;99.90
42833;DHT22;64089;51.478;5.692;2023-05-29T02:29:35;10.90;99.90
42833;DHT22;64089;51.478;5.692;2023-05-29T02:32:00;10.80;99.90
42833;DHT22;64089;51.478;5.692;2023-05-29T02:34:26;10.90;99.90
42833;DHT22;64089;51.478;5.692;2023-05-29T02:36:52;10.80;99.90
42833;DHT22;64089;51.478;5.692;2023-05-29T02:39:18;10.70;99.90
42833;DHT22;64089;51.478;5.692;2023-05-29T02:41:44;10.70;99.90
42833;DHT22;64089;51.478;5.692;2023-05-29T02:44:10;10.70;99.90
42833;DHT22;64089;51.478;5.692;2023-05-29T02:46:35;10.60;99.90
42833;DHT22;64089;51.478;5.692;2023-05-29T02:49:01;10.60;99.90
42833;DHT22;64089;51.478;5.692;2023-05-29T02:51:26;10.60;99.90
42833;DHT22;64089;51.478;5.692;2023-05-29T02:53:53;10.50;99.90
42833;DHT22;64089;51.478;5.692;2023-05-29T02:56:19;10.40;99.90
42833;DHT22;64089;51.478;5.692;2023-05-29T02:58:49;10.40;99.90
42833;DHT22;64089;51.478;5.692;2023-05-29T03:01:21;10.50;99.90
42833;DHT22;64089;51.478;5.692;2023-05-29T03:03:47;10.40;99.90
42833;DHT22;64089;51.478;5.692;2023-05-29T03:06:12;10.40;99.90
42833;DHT22;64089;51.478;5.692;2023-05-29T03:08:38;10.40;99.90
42833;DHT22;64089;51.478;5.692;2023-05-29T03:11:09;10.40;99.90
42833;DHT22;64089;51.478;5.692;2023-05-29T03:13:36;10.30;99.90
42833;DHT22;64089;51.478;5.692;2023-05-29T03:16:02;10.30;99.90
42833;DHT22;64089;51.478;5.692;2023-05-29T03:18:28;10.40;99.90
42833;DHT22;64089;51.478;5.692;2023-05-29T03:20:54;10.30;99.90
42833;DHT22;64089;51.478;5.692;2023-05-29T03:23:20;10.30;99.90
42833;DHT22;64089;51.478;5.692;2023-05-29T03:25:45;10.30;99.90
42833;DHT22;64089;51.478;5.692;2023-05-29T03:28:11;10.30;99.90
42833;DHT22;64089;51.478;5.692;2023-05-29T03:30:36;10.30;99.90
42833;DHT22;64089;51.478;5.692;2023-05-29T03:33:02;10.30;99.90
42833;DHT22;64089;51.478;5.692;2023-05-29T03:35:31;10.30;99.90
42833;DHT22;64089;51.478;5.692;2023-05-29T03:37:57;10.30;99.90
42833;DHT22;64089;51.478;5.692;2023-05-29T03:40:23;10.30;99.90
42833;DHT22;64089;51.478;5.692;2023-05-29T03:42:48;10.20;99.90
42833;DHT22;64089;51.478;5.692;2023-05-29T03:45:14;10.10;99.90
42833;DHT22;64089;51.478;5.692;2023-05-29T03:47:43;10.20;99.90
42833;DHT22;64089;51.478;5.692;2023-05-29T03:50:09;10.20;99.90
42833;DHT22;64089;51.478;5.692;2023-05-29T03:52:35;10.10;99.90
42833;DHT22;64089;51.478;5.692;2023-05-29T03:55:02;10.20;99.90
42833;DHT22;64089;51.478;5.692;2023-05-29T03:57:27;10.10;99.90
42833;DHT22;64089;51.478;5.692;2023-05-29T03:59:53;10.20;99.90
42833;DHT22;64089;51.478;5.692;2023-05-29T04:02:18;10.10;99.90
42833;DHT22;64089;51.478;5.692;2023-05-29T04:04:44;10.20;99.90
42833;DHT22;64089;51.478;5.692;2023-05-29T04:07:10;10.20;99.90
42833;DHT22;64089;51.478;5.692;2023-05-29T04:09:36;10.20;99.90
42833;DHT22;64089;51.478;5.692;2023-05-29T04:12:02;10.20;99.90
42833;DHT22;64089;51.478;5.692;2023-05-29T04:14:28;10.20;99.90
42833;DHT22;64089;51.478;5.692;2023-05-29T04:16:54;10.20;99.90
42833;DHT22;64089;51.478;5.692;2023-05-29T04:19:19;10.20;99.90
42833;DHT22;64089;51.478;5.692;2023-05-29T04:21:46;10.20;99.90
42833;DHT22;64089;51.478;5.692;2023-05-29T04:24:13;10.20;99.90
42833;DHT22;64089;51.478;5.692;2023-05-29T04:26:39;10.20;99.90
42833;DHT22;64089;51.478;5.692;2023-05-29T04:29:08;10.20;99.90
42833;DHT22;64089;51.478;5.692;2023-05-29T04:31:33;10.20;99.90
42833;DHT22;64089;51.478;5.692;2023-05-29T04:34:02;10.20;99.90
42833;DHT22;64089;51.478;5.692;2023-05-29T04:36:30;10.20;99.90
42833;DHT22;64089;51.478;5.692;2023-05-29T04:38:58;10.20;99.90
42833;DHT22;64089;51.478;5.692;2023-05-29T04:41:27;10.10;99.90
42833;DHT22;64089;51.478;5.692;2023-05-29T04:43:56;10.20;99.90
42833;DHT22;64089;51.478;5.692;2023-05-29T04:46:23;10.20;99.90
42833;DHT22;64089;51.478;5.692;2023-05-29T04:48:49;10.20;99.90
42833;DHT22;64089;51.478;5.692;2023-05-29T04:51:18;10.30;99.90
42833;DHT22;64089;51.478;5.692;2023-05-29T04:53:45;10.30;99.90
42833;DHT22;64089;51.478;5.692;2023-05-29T04:56:12;10.30;99.90
42833;DHT22;64089;51.478;5.692;2023-05-29T04:58:38;10.30;99.90
42833;DHT22;64089;51.478;5.692;2023-05-29T05:01:03;10.30;99.90
42833;DHT22;64089;51.478;5.692;2023-05-29T05:03:30;10.40;99.90
42833;DHT22;64089;51.478;5.692;2023-05-29T05:05:56;10.40;99.90
42833;DHT22;64089;51.478;5.692;2023-05-29T05:08:22;10.50;99.90
42833;DHT22;64089;51.478;5.692;2023-05-29T05:10:48;10.50;99.90
42833;DHT22;64089;51.478;5.692;2023-05-29T05:13:14;10.60;99.90
42833;DHT22;64089;51.478;5.692;2023-05-29T05:15:39;10.70;99.90
42833;DHT22;64089;51.478;5.692;2023-05-29T05:18:05;10.80;99.90
42833;DHT22;64089;51.478;5.692;2023-05-29T05:20:30;10.80;99.90
42833;DHT22;64089;51.478;5.692;2023-05-29T05:22:56;10.90;99.90
42833;DHT22;64089;51.478;5.692;2023-05-29T05:25:22;10.90;99.90
42833;DHT22;64089;51.478;5.692;2023-05-29T05:27:48;11.00;99.90
42833;DHT22;64089;51.478;5.692;2023-05-29T05:30:13;11.00;99.90
42833;DHT22;64089;51.478;5.692;2023-05-29T05:32:39;11.00;99.90
42833;DHT22;64089;51.478;5.692;2023-05-29T05:35:05;11.00;99.90
42833;DHT22;64089;51.478;5.692;2023-05-29T05:37:30;11.10;99.90
42833;DHT22;64089;51.478;5.692;2023-05-29T05:39:56;11.20;99.90
42833;DHT22;64089;51.478;5.692;2023-05-29T05:42:23;11.30;99.90
42833;DHT22;64089;51.478;5.692;2023-05-29T05:44:49;11.30;99.90
42833;DHT22;64089;51.478;5.692;2023-05-29T05:47:14;11.30;99.90
42833;DHT22;64089;51.478;5.692;2023-05-29T05:49:41;11.40;99.90
42833;DHT22;64089;51.478;5.692;2023-05-29T05:52:06;11.40;99.90
42833;DHT22;64089;51.478;5.692;2023-05-29T05:54:32;11.40;99.90
42833;DHT22;64089;51.478;5.692;2023-05-29T05:56:58;11.40;99.90
42833;DHT22;64089;51.478;5.692;2023-05-29T05:59:23;11.50;99.90
42833;DHT22;64089;51.478;5.692;2023-05-29T06:01:49;11.60;99.90
42833;DHT22;64089;51.478;5.692;2023-05-29T06:04:14;11.70;99.90
42833;DHT22;64089;51.478;5.692;2023-05-29T06:06:40;11.80;99.90
42833;DHT22;64089;51.478;5.692;2023-05-29T06:09:06;11.90;99.90
42833;DHT22;64089;51.478;5.692;2023-05-29T06:11:32;11.90;99.90
42833;DHT22;64089;51.478;5.692;2023-05-29T06:13:58;11.90;99.90
42833;DHT22;64089;51.478;5.692;2023-05-29T06:16:24;12.00;99.90
42833;DHT22;64089;51.478;5.692;2023-05-29T06:18:49;12.00;99.90
42833;DHT22;64089;51.478;5.692;2023-05-29T06:21:21;11.90;99.90
42833;DHT22;64089;51.478;5.692;2023-05-29T06:23:47;12.00;99.90
42833;DHT22;64089;51.478;5.692;2023-05-29T06:26:13;12.00;99.90
42833;DHT22;64089;51.478;5.692;2023-05-29T06:28:38;11.90;99.90
42833;DHT22;64089;51.478;5.692;2023-05-29T06:31:04;12.00;99.90
42833;DHT22;64089;51.478;5.692;2023-05-29T06:33:30;12.00;99.90
42833;DHT22;64089;51.478;5.692;2023-05-29T06:35:55;12.10;99.90
42833;DHT22;64089;51.478;5.692;2023-05-29T06:38:21;12.10;99.90
42833;DHT22;64089;51.478;5.692;2023-05-29T06:40:47;12.20;99.90
42833;DHT22;64089;51.478;5.692;2023-05-29T06:43:12;12.20;99.90
42833;DHT22;64089;51.478;5.692;2023-05-29T06:45:38;12.30;99.90
42833;DHT22;64089;51.478;5.692;2023-05-29T06:48:04;12.40;99.90
42833;DHT22;64089;51.478;5.692;2023-05-29T06:50:29;12.50;99.90
42833;DHT22;64089;51.478;5.692;2023-05-29T06:52:55;12.50;99.90
42833;DHT22;64089;51.478;5.692;2023-05-29T06:55:24;12.60;99.90
42833;DHT22;64089;51.478;5.692;2023-05-29T06:57:49;12.50;99.90
42833;DHT22;64089;51.478;5.692;2023-05-29T07:00:16;12.60;99.90
42833;DHT22;64089;51.478;5.692;2023-05-29T07:02:42;12.70;99.90
42833;DHT22;64089;51.478;5.692;2023-05-29T07:05:08;12.70;99.90
42833;DHT22;64089;51.478;5.692;2023-05-29T07:07:33;12.70;99.90
42833;DHT22;64089;51.478;5.692;2023-05-29T07:09:59;12.80;99.90
42833;DHT22;64089;51.478;5.692;2023-05-29T07:12:25;12.80;99.90
42833;DHT22;64089;51.478;5.692;2023-05-29T07:14:51;12.90;99.90
42833;DHT22;64089;51.478;5.692;2023-05-29T07:17:16;13.00;99.90
42833;DHT22;64089;51.478;5.692;2023-05-29T07:19:42;13.10;99.90
42833;DHT22;64089;51.478;5.692;2023-05-29T07:22:07;13.20;99.90
42833;DHT22;64089;51.478;5.692;2023-05-29T07:24:33;13.30;99.90
42833;DHT22;64089;51.478;5.692;2023-05-29T07:26:58;13.30;99.90
42833;DHT22;64089;51.478;5.692;2023-05-29T07:29:24;13.30;99.90
42833;DHT22;64089;51.478;5.692;2023-05-29T07:31:50;13.30;99.90
42833;DHT22;64089;51.478;5.692;2023-05-29T07:34:16;13.40;99.90
42833;DHT22;64089;51.478;5.692;2023-05-29T07:37:00;13.40;99.90
42833;DHT22;64089;51.478;5.692;2023-05-29T07:39:26;13.40;99.90
42833;DHT22;64089;51.478;5.692;2023-05-29T07:41:52;13.50;99.90
42833;DHT22;64089;51.478;5.692;2023-05-29T07:44:18;13.60;99.90
42833;DHT22;64089;51.478;5.692;2023-05-29T07:46:44;13.70;99.90
42833;DHT22;64089;51.478;5.692;2023-05-29T07:49:10;13.70;99.90
42833;DHT22;64089;51.478;5.692;2023-05-29T07:51:35;13.80;99.90
42833;DHT22;64089;51.478;5.692;2023-05-29T07:54:02;13.90;99.90
42833;DHT22;64089;51.478;5.692;2023-05-29T07:56:28;14.10;99.90
42833;DHT22;64089;51.478;5.692;2023-05-29T07:58:53;14.10;99.90
42833;DHT22;64089;51.478;5.692;2023-05-29T08:01:20;14.10;99.90
42833;DHT22;64089;51.478;5.692;2023-05-29T08:03:47;14.10;99.90
42833;DHT22;64089;51.478;5.692;2023-05-29T08:06:13;14.20;99.90
42833;DHT22;64089;51.478;5.692;2023-05-29T08:08:38;14.20;99.90
42833;DHT22;64089;51.478;5.692;2023-05-29T08:11:04;14.40;99.90
42833;DHT22;64089;51.478;5.692;2023-05-29T08:13:30;14.40;99.90
42833;DHT22;64089;51.478;5.692;2023-05-29T08:15:56;14.60;99.90
42833;DHT22;64089;51.478;5.692;2023-05-29T08:18:25;14.50;99.90
42833;DHT22;64089;51.478;5.692;2023-05-29T08:20:51;14.60;99.90
42833;DHT22;64089;51.478;5.692;2023-05-29T08:23:18;14.60;99.90
42833;DHT22;64089;51.478;5.692;2023-05-29T08:25:44;14.60;99.90
42833;DHT22;64089;51.478;5.692;2023-05-29T08:28:10;14.60;99.90
42833;DHT22;64089;51.478;5.692;2023-05-29T08:30:36;14.60;99.90
42833;DHT22;64089;51.478;5.692;2023-05-29T08:33:03;14.70;99.90
42833;DHT22;64089;51.478;5.692;2023-05-29T08:35:29;14.80;99.90
42833;DHT22;64089;51.478;5.692;2023-05-29T08:37:55;14.90;99.90
42833;DHT22;64089;51.478;5.692;2023-05-29T08:40:20;14.90;99.90
42833;DHT22;64089;51.478;5.692;2023-05-29T08:42:50;14.90;99.90
42833;DHT22;64089;51.478;5.692;2023-05-29T08:45:18;15.00;99.90
42833;DHT22;64089;51.478;5.692;2023-05-29T08:47:44;15.00;99.90
42833;DHT22;64089;51.478;5.692;2023-05-29T08:50:13;15.00;99.90
42833;DHT22;64089;51.478;5.692;2023-05-29T08:52:43;15.10;99.90
42833;DHT22;64089;51.478;5.692;2023-05-29T08:55:09;15.20;99.90
42833;DHT22;64089;51.478;5.692;2023-05-29T08:57:36;15.20;99.90
42833;DHT22;64089;51.478;5.692;2023-05-29T09:00:05;15.20;99.90
42833;DHT22;64089;51.478;5.692;2023-05-29T09:02:40;15.20;99.90
42833;DHT22;64089;51.478;5.692;2023-05-29T09:05:06;15.20;99.90
42833;DHT22;64089;51.478;5.692;2023-05-29T09:07:33;15.40;99.90
42833;DHT22;64089;51.478;5.692;2023-05-29T09:09:59;15.50;99.90
42833;DHT22;64089;51.478;5.692;2023-05-29T09:12:26;15.60;99.90
42833;DHT22;64089;51.478;5.692;2023-05-29T09:14:52;15.70;99.90
42833;DHT22;64089;51.478;5.692;2023-05-29T09:17:18;15.90;99.90
42833;DHT22;64089;51.478;5.692;2023-05-29T09:19:44;16.10;99.90
42833;DHT22;64089;51.478;5.692;2023-05-29T09:22:13;16.20;99.90
42833;DHT22;64089;51.478;5.692;2023-05-29T09:24:46;16.00;99.90
42833;DHT22;64089;51.478;5.692;2023-05-29T09:27:11;15.90;99.90
42833;DHT22;64089;51.478;5.692;2023-05-29T09:29:41;16.00;99.90
42833;DHT22;64089;51.478;5.692;2023-05-29T09:32:08;16.10;99.90
42833;DHT22;64089;51.478;5.692;2023-05-29T09:34:34;16.30;99.90
42833;DHT22;64089;51.478;5.692;2023-05-29T09:37:02;16.60;99.90
42833;DHT22;64089;51.478;5.692;2023-05-29T09:39:34;16.30;99.90
42833;DHT22;64089;51.478;5.692;2023-05-29T09:41:59;16.30;99.90
42833;DHT22;64089;51.478;5.692;2023-05-29T09:44:27;16.30;99.90
42833;DHT22;64089;51.478;5.692;2023-05-29T09:46:58;16.40;99.90
42833;DHT22;64089;51.478;5.692;2023-05-29T09:49:23;16.70;99.90
42833;DHT22;64089;51.478;5.692;2023-05-29T09:51:53;16.70;99.90
42833;DHT22;64089;51.478;5.692;2023-05-29T09:54:19;16.80;99.90
42833;DHT22;64089;51.478;5.692;2023-05-29T09:56:45;17.00;99.90
42833;DHT22;64089;51.478;5.692;2023-05-29T09:59:13;17.00;99.90
42833;DHT22;64089;51.478;5.692;2023-05-29T10:01:46;17.30;99.90
42833;DHT22;64089;51.478;5.692;2023-05-29T10:04:12;17.50;99.90
42833;DHT22;64089;51.478;5.692;2023-05-29T10:06:39;17.60;99.90
42833;DHT22;64089;51.478;5.692;2023-05-29T10:09:09;17.50;99.80
42833;DHT22;64089;51.478;5.692;2023-05-29T10:11:38;17.50;99.90
42833;DHT22;64089;51.478;5.692;2023-05-29T10:14:05;17.70;99.90
42833;DHT22;64089;51.478;5.692;2023-05-29T10:16:32;18.00;99.70
42833;DHT22;64089;51.478;5.692;2023-05-29T10:19:01;17.80;99.70
42833;DHT22;64089;51.478;5.692;2023-05-29T10:21:32;17.80;99.30
42833;DHT22;64089;51.478;5.692;2023-05-29T10:24:04;17.80;98.90
42833;DHT22;64089;51.478;5.692;2023-05-29T10:26:36;17.60;99.60
42833;DHT22;64089;51.478;5.692;2023-05-29T10:29:19;17.60;98.80
42833;DHT22;64089;51.478;5.692;2023-05-29T10:34:46;17.70;99.00
42833;DHT22;64089;51.478;5.692;2023-05-29T10:37:33;17.80;98.80
42833;DHT22;64089;51.478;5.692;2023-05-29T10:40:08;17.90;98.90
42833;DHT22;64089;51.478;5.692;2023-05-29T10:42:49;17.90;98.70
42833;DHT22;64089;51.478;5.692;2023-05-29T10:50:38;18.30;99.00
42833;DHT22;64089;51.478;5.692;2023-05-29T10:53:06;18.20;98.40
42833;DHT22;64089;51.478;5.692;2023-05-29T10:55:36;18.20;98.30
42833;DHT22;64089;51.478;5.692;2023-05-29T10:58:11;18.10;98.20
42833;DHT22;64089;51.478;5.692;2023-05-29T11:00:41;18.10;98.20
42833;DHT22;64089;51.478;5.692;2023-05-29T11:03:08;18.40;98.30
42833;DHT22;64089;51.478;5.692;2023-05-29T11:05:34;18.70;98.40
42833;DHT22;64089;51.478;5.692;2023-05-29T11:08:01;18.90;98.40
42833;DHT22;64089;51.478;5.692;2023-05-29T11:13:32;19.20;97.60
42833;DHT22;64089;51.478;5.692;2023-05-29T11:18:51;19.00;97.00
42833;DHT22;64089;51.478;5.692;2023-05-29T11:21:30;18.60;97.00
42833;DHT22;64089;51.478;5.692;2023-05-29T11:24:02;18.90;97.30
42833;DHT22;64089;51.478;5.692;2023-05-29T11:26:29;19.20;97.00
42833;DHT22;64089;51.478;5.692;2023-05-29T11:29:04;19.10;96.90
42833;DHT22;64089;51.478;5.692;2023-05-29T11:31:33;18.90;97.20
42833;DHT22;64089;51.478;5.692;2023-05-29T11:34:01;18.90;97.10
42833;DHT22;64089;51.478;5.692;2023-05-29T11:36:29;18.80;96.80
42833;DHT22;64089;51.478;5.692;2023-05-29T11:38:56;18.90;97.30
42833;DHT22;64089;51.478;5.692;2023-05-29T11:41:21;19.00;96.80
42833;DHT22;64089;51.478;5.692;2023-05-29T11:44:02;19.10;96.40
42833;DHT22;64089;51.478;5.692;2023-05-29T11:46:28;19.30;96.70
42833;DHT22;64089;51.478;5.692;2023-05-29T11:48:56;19.40;96.40
42833;DHT22;64089;51.478;5.692;2023-05-29T11:51:22;19.70;96.20
42833;DHT22;64089;51.478;5.692;2023-05-29T11:53:48;19.80;96.10
42833;DHT22;64089;51.478;5.692;2023-05-29T11:56:14;20.00;95.80
42833;DHT22;64089;51.478;5.692;2023-05-29T11:58:43;20.30;96.00
42833;DHT22;64089;51.478;5.692;2023-05-29T12:01:10;19.90;95.60
42833;DHT22;64089;51.478;5.692;2023-05-29T12:03:40;19.50;94.80
42833;DHT22;64089;51.478;5.692;2023-05-29T12:06:06;19.70;96.00
42833;DHT22;64089;51.478;5.692;2023-05-29T12:08:32;19.60;95.70
42833;DHT22;64089;51.478;5.692;2023-05-29T12:10:58;19.40;95.70
42833;DHT22;64089;51.478;5.692;2023-05-29T12:13:24;19.50;95.60
42833;DHT22;64089;51.478;5.692;2023-05-29T12:15:53;19.40;95.70
42833;DHT22;64089;51.478;5.692;2023-05-29T12:18:20;19.40;95.30
42833;DHT22;64089;51.478;5.692;2023-05-29T12:20:46;19.40;95.50
42833;DHT22;64089;51.478;5.692;2023-05-29T12:23:11;19.50;95.50
42833;DHT22;64089;51.478;5.692;2023-05-29T12:25:37;19.30;95.30
42833;DHT22;64089;51.478;5.692;2023-05-29T12:28:04;19.40;96.00
42833;DHT22;64089;51.478;5.692;2023-05-29T12:30:30;19.10;95.10
42833;DHT22;64089;51.478;5.692;2023-05-29T12:32:56;19.20;95.60
42833;DHT22;64089;51.478;5.692;2023-05-29T12:35:24;19.20;95.40
42833;DHT22;64089;51.478;5.692;2023-05-29T12:37:56;19.20;94.90
42833;DHT22;64089;51.478;5.692;2023-05-29T12:40:23;19.40;95.50
42833;DHT22;64089;51.478;5.692;2023-05-29T12:42:55;19.50;95.80
42833;DHT22;64089;51.478;5.692;2023-05-29T12:45:25;19.70;95.00
42833;DHT22;64089;51.478;5.692;2023-05-29T12:47:59;19.80;95.30
42833;DHT22;64089;51.478;5.692;2023-05-29T12:50:28;20.00;94.50
42833;DHT22;64089;51.478;5.692;2023-05-29T12:55:28;19.80;94.60
42833;DHT22;64089;51.478;5.692;2023-05-29T12:57:55;20.30;95.20
42833;DHT22;64089;51.478;5.692;2023-05-29T13:00:22;20.70;94.30
42833;DHT22;64089;51.478;5.692;2023-05-29T13:02:49;20.70;93.90
42833;DHT22;64089;51.478;5.692;2023-05-29T13:05:18;20.50;94.40
42833;DHT22;64089;51.478;5.692;2023-05-29T13:07:46;20.50;94.30
42833;DHT22;64089;51.478;5.692;2023-05-29T13:10:12;20.20;92.60
42833;DHT22;64089;51.478;5.692;2023-05-29T13:12:38;19.90;93.40
42833;DHT22;64089;51.478;5.692;2023-05-29T13:15:04;20.20;93.60
42833;DHT22;64089;51.478;5.692;2023-05-29T13:17:31;20.60;93.50
42833;DHT22;64089;51.478;5.692;2023-05-29T13:19:56;20.40;93.00
42833;DHT22;64089;51.478;5.692;2023-05-29T13:22:22;20.10;93.10
42833;DHT22;64089;51.478;5.692;2023-05-29T13:24:48;20.30;93.00
42833;DHT22;64089;51.478;5.692;2023-05-29T13:27:13;20.30;93.00
42833;DHT22;64089;51.478;5.692;2023-05-29T13:29:44;20.20;93.00
42833;DHT22;64089;51.478;5.692;2023-05-29T13:32:09;20.30;93.30
42833;DHT22;64089;51.478;5.692;2023-05-29T13:34:35;20.70;93.10
42833;DHT22;64089;51.478;5.692;2023-05-29T13:37:01;20.70;92.40
42833;DHT22;64089;51.478;5.692;2023-05-29T13:39:28;20.60;92.60
42833;DHT22;64089;51.478;5.692;2023-05-29T13:41:54;20.30;92.60
42833;DHT22;64089;51.478;5.692;2023-05-29T13:44:19;20.30;92.60
42833;DHT22;64089;51.478;5.692;2023-05-29T13:46:45;20.20;92.40
42833;DHT22;64089;51.478;5.692;2023-05-29T13:49:11;20.00;92.00
42833;DHT22;64089;51.478;5.692;2023-05-29T13:51:36;19.90;91.60
42833;DHT22;64089;51.478;5.692;2023-05-29T13:54:03;19.90;92.00
42833;DHT22;64089;51.478;5.692;2023-05-29T13:56:29;20.00;91.60
42833;DHT22;64089;51.478;5.692;2023-05-29T13:58:55;20.30;91.90
42833;DHT22;64089;51.478;5.692;2023-05-29T14:01:20;20.80;91.50
42833;DHT22;64089;51.478;5.692;2023-05-29T14:03:47;20.90;90.90
42833;DHT22;64089;51.478;5.692;2023-05-29T14:06:13;20.80;88.70
42833;DHT22;64089;51.478;5.692;2023-05-29T14:08:38;20.90;90.30
42833;DHT22;64089;51.478;5.692;2023-05-29T14:11:04;20.90;88.50
42833;DHT22;64089;51.478;5.692;2023-05-29T14:13:30;21.00;88.90
42833;DHT22;64089;51.478;5.692;2023-05-29T14:15:55;21.00;85.80
42833;DHT22;64089;51.478;5.692;2023-05-29T14:18:22;21.20;87.40
42833;DHT22;64089;51.478;5.692;2023-05-29T14:20:48;21.20;87.90
42833;DHT22;64089;51.478;5.692;2023-05-29T14:23:17;21.00;87.10
42833;DHT22;64089;51.478;5.692;2023-05-29T14:25:43;20.70;87.20
42833;DHT22;64089;51.478;5.692;2023-05-29T14:28:09;20.50;86.70
42833;DHT22;64089;51.478;5.692;2023-05-29T14:30:39;21.00;88.00
42833;DHT22;64089;51.478;5.692;2023-05-29T14:33:04;21.10;85.30
42833;DHT22;64089;51.478;5.692;2023-05-29T14:35:30;21.30;84.10
42833;DHT22;64089;51.478;5.692;2023-05-29T14:37:59;21.10;84.00
42833;DHT22;64089;51.478;5.692;2023-05-29T14:40:25;21.00;84.10
42833;DHT22;64089;51.478;5.692;2023-05-29T14:42:51;21.00;84.60
42833;DHT22;64089;51.478;5.692;2023-05-29T14:45:17;21.00;84.30
42833;DHT22;64089;51.478;5.692;2023-05-29T14:47:43;20.90;82.50
42833;DHT22;64089;51.478;5.692;2023-05-29T14:50:09;20.80;82.10
42833;DHT22;64089;51.478;5.692;2023-05-29T14:52:34;20.50;83.00
42833;DHT22;64089;51.478;5.692;2023-05-29T14:55:01;20.70;83.50
42833;DHT22;64089;51.478;5.692;2023-05-29T14:57:27;21.20;84.40
42833;DHT22;64089;51.478;5.692;2023-05-29T14:59:53;21.50;84.90
42833;DHT22;64089;51.478;5.692;2023-05-29T15:02:18;21.60;83.50
42833;DHT22;64089;51.478;5.692;2023-05-29T15:04:44;21.60;82.80
42833;DHT22;64089;51.478;5.692;2023-05-29T15:07:10;21.60;82.50
42833;DHT22;64089;51.478;5.692;2023-05-29T15:09:35;21.20;81.20
42833;DHT22;64089;51.478;5.692;2023-05-29T15:12:03;20.90;82.20
42833;DHT22;64089;51.478;5.692;2023-05-29T15:14:29;20.90;83.00
42833;DHT22;64089;51.478;5.692;2023-05-29T15:16:55;21.30;83.60
42833;DHT22;64089;51.478;5.692;2023-05-29T15:19:21;21.70;82.10
42833;DHT22;64089;51.478;5.692;2023-05-29T15:21:47;21.50;82.10
42833;DHT22;64089;51.478;5.692;2023-05-29T15:24:12;21.20;82.20
42833;DHT22;64089;51.478;5.692;2023-05-29T15:26:38;21.00;82.00
42833;DHT22;64089;51.478;5.692;2023-05-29T15:29:04;21.00;81.20
42833;DHT22;64089;51.478;5.692;2023-05-29T15:31:30;21.30;82.00
42833;DHT22;64089;51.478;5.692;2023-05-29T15:33:56;21.30;81.40
42833;DHT22;64089;51.478;5.692;2023-05-29T15:36:21;21.00;80.40
42833;DHT22;64089;51.478;5.692;2023-05-29T15:38:47;20.90;81.50
42833;DHT22;64089;51.478;5.692;2023-05-29T15:41:12;21.30;81.40
42833;DHT22;64089;51.478;5.692;2023-05-29T15:43:38;21.50;82.00
42833;DHT22;64089;51.478;5.692;2023-05-29T15:46:03;21.50;80.30
42833;DHT22;64089;51.478;5.692;2023-05-29T15:48:30;21.60;79.10
42833;DHT22;64089;51.478;5.692;2023-05-29T15:50:55;21.40;79.40
42833;DHT22;64089;51.478;5.692;2023-05-29T15:53:21;21.40;78.80